createdAt,value
2019-05-28T00:00:11.540Z,67.08
2019-05-28T00:02:37.403Z,66.14
2019-05-28T00:05:04.661Z,66.29
2019-05-28T00:07:30.520Z,66.47
2019-05-28T00:09:56.390Z,64.50
2019-05-28T00:12:22.261Z,66.61
2019-05-28T00:14:48.177Z,66.61
2019-05-28T00:17:14.020Z,66.21
2019-05-28T00:19:39.866Z,65.70
2019-05-28T00:22:05.723Z,65.73
2019-05-28T00:24:31.589Z,65.36
2019-05-28T00:26:57.442Z,66.41
2019-05-28T00:29:23.305Z,67.75
2019-05-28T00:31:49.319Z,68.31
2019-05-28T00:34:15.174Z,67.94
2019-05-28T00:36:41.160Z,66.97
2019-05-28T00:39:07.316Z,67.12
2019-05-28T00:41:33.173Z,67.61
2019-05-28T00:43:59.035Z,66.66
2019-05-28T00:46:24.928Z,66.27
2019-05-28T00:48:50.763Z,66.63
2019-05-28T00:51:16.845Z,67.36
2019-05-28T00:53:42.698Z,67.26
2019-05-28T00:56:08.776Z,68.20
2019-05-28T00:58:35.739Z,68.86
2019-05-28T01:01:01.587Z,68.49
2019-05-28T01:03:27.494Z,68.39
2019-05-28T01:05:53.541Z,67.00
2019-05-28T01:08:19.394Z,67.59
2019-05-28T01:10:46.296Z,67.70
2019-05-28T01:13:12.181Z,67.84
2019-05-28T01:15:38.004Z,68.44
2019-05-28T01:18:04.076Z,68.45
2019-05-28T01:20:29.935Z,67.74
2019-05-28T01:22:55.799Z,68.83
2019-05-28T01:25:21.753Z,69.10
2019-05-28T01:27:47.648Z,68.68
2019-05-28T01:30:14.015Z,67.78
2019-05-28T01:32:39.870Z,69.30
2019-05-28T01:35:05.927Z,68.73
2019-05-28T01:37:31.799Z,68.69
2019-05-28T01:39:57.659Z,68.92
2019-05-28T01:42:23.513Z,68.45
2019-05-28T01:44:49.383Z,68.38
2019-05-28T01:47:15.250Z,67.46
2019-05-28T01:49:41.116Z,67.16
2019-05-28T01:52:06.978Z,67.60
2019-05-28T01:54:32.847Z,67.98
2019-05-28T01:56:58.718Z,68.78
2019-05-28T01:59:24.619Z,68.78
2019-05-28T02:01:50.481Z,68.15
2019-05-28T02:04:16.326Z,68.14
2019-05-28T02:06:42.202Z,67.79
2019-05-28T02:09:08.058Z,67.53
2019-05-28T02:11:33.915Z,67.75
2019-05-28T02:13:59.780Z,67.72
2019-05-28T02:16:25.643Z,68.50
2019-05-28T02:18:51.509Z,67.56
2019-05-28T02:21:17.665Z,67.54
2019-05-28T02:23:43.522Z,67.71
2019-05-28T02:26:09.395Z,68.00
2019-05-28T02:28:35.252Z,68.20
2019-05-28T02:31:01.109Z,68.40
2019-05-28T02:33:26.973Z,68.71
2019-05-28T02:35:52.821Z,68.55
2019-05-28T02:38:18.682Z,67.31
2019-05-28T02:40:47.638Z,68.08
2019-05-28T02:43:13.633Z,68.66
2019-05-28T02:45:39.504Z,69.15
2019-05-28T02:48:05.653Z,68.55
2019-05-28T02:50:44.366Z,69.35
2019-05-28T02:53:10.225Z,68.96
2019-05-28T02:55:36.099Z,68.67
2019-05-28T02:58:02.925Z,70.31
2019-05-28T03:00:29.053Z,70.59
2019-05-28T03:02:56.412Z,69.29
2019-05-28T03:05:22.768Z,70.22
2019-05-28T03:07:49.325Z,70.18
2019-05-28T03:10:21.902Z,69.92
2019-05-28T03:12:47.833Z,70.59
2019-05-28T03:15:14.068Z,70.00
2019-05-28T03:17:41.355Z,71.31
2019-05-28T03:20:07.529Z,71.48
2019-05-28T03:22:36.089Z,72.52
2019-05-28T03:25:04.296Z,71.05
2019-05-28T03:27:30.178Z,71.21
2019-05-28T03:29:56.036Z,71.16
2019-05-28T03:32:21.936Z,70.73
2019-05-28T03:34:47.778Z,71.46
2019-05-28T03:37:14.144Z,71.68
2019-05-28T03:39:41.617Z,72.49
2019-05-28T03:42:07.694Z,71.68
2019-05-28T03:44:33.543Z,72.66
2019-05-28T03:46:59.406Z,72.31
2019-05-28T03:49:25.348Z,71.29
2019-05-28T03:51:51.286Z,71.53
2019-05-28T03:54:17.246Z,72.18
2019-05-28T03:56:43.099Z,71.65
2019-05-28T03:59:08.969Z,72.15
2019-05-28T04:01:34.831Z,71.93
2019-05-28T04:04:00.687Z,72.22
2019-05-28T04:06:26.537Z,74.14
2019-05-28T04:08:52.403Z,73.53
2019-05-28T04:11:18.405Z,74.11
2019-05-28T04:13:44.271Z,75.86
2019-05-28T04:16:10.213Z,78.11
2019-05-28T04:18:36.083Z,80.59
2019-05-28T04:21:02.046Z,80.06
2019-05-28T04:23:27.911Z,81.13
2019-05-28T04:25:53.778Z,82.80
2019-05-28T04:28:19.645Z,82.86
2019-05-28T04:30:45.535Z,80.98
2019-05-28T04:33:11.372Z,79.38
2019-05-28T04:35:37.229Z,81.14
2019-05-28T04:38:03.085Z,80.21
2019-05-28T04:40:28.994Z,79.14
2019-05-28T04:42:54.865Z,80.60
2019-05-28T04:45:21.006Z,80.63
2019-05-28T04:47:46.871Z,80.90
2019-05-28T04:50:13.325Z,80.11
2019-05-28T04:52:39.178Z,79.26
2019-05-28T04:55:05.347Z,80.61
2019-05-28T04:57:31.263Z,80.43
2019-05-28T04:59:57.082Z,78.28
2019-05-28T05:02:22.969Z,81.59
2019-05-28T05:04:48.821Z,82.85
2019-05-28T05:07:14.699Z,83.19
2019-05-28T05:09:40.552Z,82.42
2019-05-28T05:12:06.428Z,82.63
2019-05-28T05:14:32.294Z,82.59
2019-05-28T05:16:58.155Z,82.64
2019-05-28T05:19:24.014Z,82.39
2019-05-28T05:21:49.879Z,82.29
2019-05-28T05:24:15.763Z,80.68
2019-05-28T05:26:41.626Z,79.54
2019-05-28T05:29:08.346Z,81.30
2019-05-28T05:31:34.201Z,83.56
2019-05-28T05:34:00.060Z,83.34
2019-05-28T05:36:25.929Z,82.97
2019-05-28T05:38:51.780Z,82.97
2019-05-28T05:41:17.640Z,81.87
2019-05-28T05:43:43.501Z,81.17
2019-05-28T05:46:09.363Z,80.19
2019-05-28T05:48:35.228Z,79.48
2019-05-28T05:51:01.083Z,81.34
2019-05-28T05:53:26.928Z,80.49
2019-05-28T05:55:52.792Z,79.77
2019-05-28T05:58:18.659Z,80.68
2019-05-28T06:00:44.577Z,82.09
2019-05-28T06:03:11.308Z,81.79
2019-05-28T06:05:37.231Z,81.92
2019-05-28T06:08:03.213Z,81.92
2019-05-28T06:10:29.050Z,80.91
2019-05-28T06:12:54.927Z,79.85
2019-05-28T06:15:20.790Z,80.21
2019-05-28T06:17:47.011Z,79.74
2019-05-28T06:20:13.468Z,79.21
2019-05-28T06:22:39.315Z,78.60
2019-05-28T06:25:05.717Z,78.79
2019-05-28T06:27:31.557Z,79.20
2019-05-28T06:29:57.401Z,79.36
2019-05-28T06:32:23.293Z,79.33
2019-05-28T06:34:49.148Z,79.40
2019-05-28T06:37:14.999Z,78.83
2019-05-28T06:39:40.856Z,79.42
2019-05-28T06:42:06.709Z,78.81
2019-05-28T06:44:32.558Z,78.31
2019-05-28T06:46:58.425Z,77.61
2019-05-28T06:49:27.294Z,77.27
2019-05-28T06:51:53.151Z,77.60
2019-05-28T06:54:19.023Z,77.64
2019-05-28T06:56:44.922Z,76.49
2019-05-28T06:59:10.814Z,76.98
2019-05-28T07:01:36.741Z,78.14
2019-05-28T07:04:13.241Z,77.27
2019-05-28T07:06:30.960Z,76.82
2019-05-28T07:08:56.819Z,78.29
2019-05-28T07:11:22.677Z,78.69
2019-05-28T07:13:48.525Z,76.87
2019-05-28T07:16:14.389Z,76.55
2019-05-28T07:18:40.259Z,77.24
2019-05-28T07:21:06.121Z,76.60
2019-05-28T07:23:31.977Z,75.83
2019-05-28T07:25:57.833Z,77.50
2019-05-28T07:28:23.690Z,77.58
2019-05-28T07:30:49.565Z,77.74
2019-05-28T07:33:15.436Z,78.01
2019-05-28T07:35:45.942Z,76.94
2019-05-28T07:38:09.026Z,77.02
2019-05-28T07:40:34.897Z,77.90
2019-05-28T07:43:00.746Z,78.87
2019-05-28T07:45:26.606Z,79.48
2019-05-28T07:47:52.462Z,78.27
2019-05-28T07:50:18.319Z,78.96
2019-05-28T07:52:44.180Z,78.98
2019-05-28T07:55:10.540Z,78.60
2019-05-28T07:57:36.402Z,77.59
2019-05-28T08:00:05.773Z,78.30
2019-05-28T08:02:31.936Z,78.31
2019-05-28T08:04:57.798Z,78.40
2019-05-28T08:07:23.787Z,77.79
2019-05-28T08:09:49.645Z,79.75
2019-05-28T08:12:15.504Z,78.49
2019-05-28T08:14:41.370Z,77.92
2019-05-28T08:17:07.232Z,77.42
2019-05-28T08:19:33.096Z,77.06
2019-05-28T08:21:58.955Z,77.83
2019-05-28T08:24:24.816Z,78.39
2019-05-28T08:26:50.677Z,78.27
2019-05-28T08:29:19.512Z,79.60
2019-05-28T08:31:45.351Z,79.05
2019-05-28T08:34:13.178Z,78.61
2019-05-28T08:36:39.638Z,78.40
2019-05-28T08:39:06.167Z,77.88
2019-05-28T08:41:32.038Z,78.14
2019-05-28T08:43:57.881Z,77.75
2019-05-28T08:46:23.748Z,78.61
2019-05-28T08:48:49.711Z,77.26
2019-05-28T08:51:15.581Z,76.82
2019-05-28T08:53:41.512Z,76.02
2019-05-28T08:56:07.409Z,76.02
2019-05-28T08:58:33.276Z,76.12
2019-05-28T09:00:59.139Z,76.58
2019-05-28T09:03:25.019Z,77.12
2019-05-28T09:05:50.886Z,76.39
2019-05-28T09:08:16.794Z,76.62
2019-05-28T09:10:42.631Z,76.17
2019-05-28T09:13:08.499Z,75.45
2019-05-28T09:15:34.468Z,75.14
2019-05-28T09:18:01.815Z,75.14
2019-05-28T09:20:27.831Z,75.83
2019-05-28T09:22:54.183Z,76.08
2019-05-28T09:25:20.160Z,75.38
2019-05-28T09:27:46.030Z,74.88
2019-05-28T09:30:13.393Z,74.88
2019-05-28T09:32:39.314Z,74.35
2019-05-28T09:35:06.221Z,74.39
2019-05-28T09:37:32.067Z,74.25
2019-05-28T09:39:57.929Z,73.35
2019-05-28T09:42:23.786Z,75.22
2019-05-28T09:44:49.634Z,73.65
2019-05-28T09:47:15.496Z,73.51
2019-05-28T09:49:41.341Z,73.79
2019-05-28T09:52:07.218Z,75.09
2019-05-28T09:54:33.074Z,74.80
2019-05-28T09:56:58.942Z,75.33
2019-05-28T09:59:40.278Z,73.89
2019-05-28T10:01:53.059Z,74.03
2019-05-28T10:04:18.919Z,74.70
2019-05-28T10:06:44.799Z,74.73
2019-05-28T10:09:10.821Z,74.60
2019-05-28T10:11:36.667Z,75.26
2019-05-28T10:14:02.949Z,73.80
2019-05-28T10:16:28.790Z,73.21
2019-05-28T10:18:55.102Z,73.43
2019-05-28T10:21:20.990Z,72.98
2019-05-28T10:23:46.858Z,73.71
2019-05-28T10:26:12.756Z,72.71
2019-05-28T10:28:38.594Z,73.62
2019-05-28T10:31:04.448Z,72.51
2019-05-28T10:33:30.308Z,74.39
2019-05-28T10:35:56.191Z,74.55
2019-05-28T10:38:22.038Z,72.94
2019-05-28T10:40:47.896Z,73.16
2019-05-28T10:43:13.926Z,72.98
2019-05-28T10:45:40.203Z,73.60
2019-05-28T10:48:06.276Z,73.38
2019-05-28T10:50:32.171Z,73.80
2019-05-28T10:52:58.032Z,73.33
2019-05-28T10:55:24.039Z,73.38
2019-05-28T10:57:49.936Z,71.68
2019-05-28T11:00:16.887Z,72.87
2019-05-28T11:02:42.833Z,72.23
2019-05-28T11:05:09.737Z,70.22
2019-05-28T11:07:35.564Z,70.35
2019-05-28T11:10:20.051Z,72.24
2019-05-28T11:12:31.076Z,72.63
2019-05-28T11:14:57.019Z,69.79
2019-05-28T11:17:22.872Z,68.98
2019-05-28T11:19:48.762Z,69.69
2019-05-28T11:22:15.261Z,67.77
2019-05-28T11:24:41.117Z,68.26
2019-05-28T11:27:07.003Z,68.39
2019-05-28T11:29:32.887Z,67.28
2019-05-28T11:31:58.775Z,68.78
2019-05-28T11:34:24.710Z,68.75
2019-05-28T11:36:50.661Z,68.50
2019-05-28T11:39:16.461Z,68.89
2019-05-28T11:41:43.296Z,69.24
2019-05-28T11:44:09.401Z,69.03
2019-05-28T11:46:35.357Z,69.09
2019-05-28T11:49:01.222Z,66.99
2019-05-28T11:51:27.092Z,67.94
2019-05-28T11:53:55.307Z,66.53
2019-05-28T11:56:21.205Z,66.27
2019-05-28T11:58:47.066Z,66.30
2019-05-28T12:01:12.925Z,66.43
2019-05-28T12:03:38.777Z,66.97
2019-05-28T12:06:04.657Z,67.46
2019-05-28T12:08:30.496Z,67.83
2019-05-28T12:10:56.366Z,66.84
2019-05-28T12:13:22.251Z,67.00
2019-05-28T12:15:48.095Z,66.66
2019-05-28T12:18:13.964Z,67.05
2019-05-28T12:20:39.830Z,67.14
2019-05-28T12:23:11.004Z,64.86
2019-05-28T12:25:33.472Z,64.10
2019-05-28T12:27:59.344Z,64.27
2019-05-28T12:30:25.694Z,64.80
2019-05-28T12:32:51.569Z,64.16
2019-05-28T12:35:29.304Z,63.87
2019-05-28T12:37:50.584Z,64.86
2019-05-28T12:40:17.481Z,63.33
2019-05-28T12:42:43.341Z,62.83
2019-05-28T12:45:11.623Z,62.98
2019-05-28T12:47:37.470Z,63.88
2019-05-28T12:50:17.825Z,63.29
2019-05-28T12:52:32.903Z,63.93
2019-05-28T12:54:58.773Z,61.95
2019-05-28T12:57:24.641Z,62.80
2019-05-28T12:59:50.519Z,63.39
2019-05-28T13:02:16.386Z,63.52
2019-05-28T13:04:42.245Z,61.80
2019-05-28T13:07:08.222Z,61.81
2019-05-28T13:09:34.079Z,61.42
2019-05-28T13:11:59.960Z,58.33
2019-05-28T13:14:26.139Z,59.03
2019-05-28T13:16:51.989Z,58.42
2019-05-28T13:19:17.838Z,57.23
2019-05-28T13:21:43.695Z,58.34
2019-05-28T13:24:09.587Z,57.26
2019-05-28T13:26:35.424Z,57.49
2019-05-28T13:29:01.293Z,57.70
2019-05-28T13:31:27.137Z,56.66
2019-05-28T13:33:53.187Z,56.94
2019-05-28T13:36:19.064Z,58.06
2019-05-28T13:38:45.434Z,57.41
2019-05-28T13:41:11.288Z,57.05
2019-05-28T13:43:37.144Z,55.54
2019-05-28T13:46:03.204Z,57.09
2019-05-28T13:48:29.063Z,57.83
2019-05-28T13:50:54.982Z,56.79
2019-05-28T13:53:20.807Z,58.24
2019-05-28T13:55:46.666Z,59.09
2019-05-28T13:58:12.532Z,59.04
2019-05-28T14:00:38.386Z,58.17
2019-05-28T14:03:07.763Z,58.74
2019-05-28T14:05:33.626Z,58.89
2019-05-28T14:07:59.479Z,58.85
2019-05-28T14:10:25.592Z,59.64
2019-05-28T14:12:51.476Z,58.26
2019-05-28T14:15:18.292Z,56.29
2019-05-28T14:17:44.174Z,55.92
2019-05-28T14:20:10.579Z,56.00
2019-05-28T14:22:36.445Z,56.30
2019-05-28T14:25:06.490Z,54.52
2019-05-28T14:27:32.933Z,53.36
2019-05-28T14:29:59.341Z,52.00
2019-05-28T14:32:25.207Z,52.40
2019-05-28T14:34:52.510Z,52.94
2019-05-28T14:37:18.630Z,54.09
2019-05-28T14:39:44.590Z,54.47
2019-05-28T14:42:10.447Z,54.82
2019-05-28T14:44:36.308Z,55.58
2019-05-28T14:47:02.830Z,55.47
2019-05-28T14:49:28.685Z,56.00
2019-05-28T14:51:54.750Z,55.41
2019-05-28T14:54:20.618Z,55.65
2019-05-28T14:56:46.493Z,56.13
2019-05-28T14:59:12.357Z,56.62
2019-05-28T15:01:38.352Z,56.75
2019-05-28T15:04:04.195Z,57.03
2019-05-28T15:06:30.075Z,57.13
2019-05-28T15:08:55.944Z,56.17
2019-05-28T15:11:21.807Z,56.09
2019-05-28T15:13:48.180Z,55.45
2019-05-28T15:16:14.062Z,55.56
2019-05-28T15:18:39.916Z,56.00
2019-05-28T15:21:05.782Z,56.14
2019-05-28T15:23:31.634Z,55.56
2019-05-28T15:25:57.542Z,56.67
2019-05-28T15:28:23.393Z,56.56
2019-05-28T15:30:49.461Z,55.79
2019-05-28T15:33:15.322Z,55.34
2019-05-28T15:35:41.176Z,56.61
2019-05-28T15:38:07.097Z,54.30
2019-05-28T15:40:32.945Z,54.76
2019-05-28T15:43:06.237Z,54.91
2019-05-28T15:45:26.805Z,56.13
2019-05-28T15:47:52.655Z,56.37
2019-05-28T15:50:18.668Z,56.00
2019-05-28T15:52:44.667Z,55.83
2019-05-28T15:55:10.852Z,56.26
2019-05-28T15:57:36.733Z,55.78
2019-05-28T16:00:08.235Z,55.51
2019-05-28T16:02:34.209Z,54.87
2019-05-28T16:05:00.105Z,55.17
2019-05-28T16:07:25.950Z,56.21
2019-05-28T16:09:55.973Z,55.85
2019-05-28T16:12:19.586Z,55.42
2019-05-28T16:14:45.511Z,55.42
2019-05-28T16:17:11.377Z,55.23
2019-05-28T16:19:37.240Z,55.52
2019-05-28T16:22:03.163Z,54.17
2019-05-28T16:24:28.992Z,53.84
2019-05-28T16:26:54.844Z,53.58
2019-05-28T16:29:20.702Z,53.71
2019-05-28T16:31:46.573Z,53.85
2019-05-28T16:34:12.426Z,53.55
2019-05-28T16:36:38.295Z,53.63
2019-05-28T16:39:06.950Z,53.80
2019-05-28T16:41:32.805Z,53.16
2019-05-28T16:43:58.663Z,53.35
2019-05-28T16:46:25.113Z,52.90
2019-05-28T16:48:50.956Z,53.83
2019-05-28T16:51:16.854Z,52.99
2019-05-28T16:53:42.799Z,53.84
2019-05-28T16:56:08.734Z,53.27
2019-05-28T16:58:34.595Z,53.90
2019-05-28T17:01:20.833Z,52.55
2019-05-28T17:03:28.333Z,52.49
2019-05-28T17:05:54.284Z,51.95
2019-05-28T17:08:20.256Z,51.98
2019-05-28T17:10:46.116Z,53.03
2019-05-28T17:13:11.978Z,51.56
2019-05-28T17:15:38.755Z,50.95
2019-05-28T17:18:04.627Z,50.92
2019-05-28T17:20:30.501Z,50.51
2019-05-28T17:22:56.385Z,50.17
2019-05-28T17:25:24.029Z,50.98
2019-05-28T17:27:50.329Z,50.85
2019-05-28T17:30:22.723Z,50.37
2019-05-28T17:32:44.427Z,50.57
2019-05-28T17:35:11.062Z,50.92
2019-05-28T17:37:36.933Z,51.69
2019-05-28T17:40:04.228Z,51.83
2019-05-28T17:42:30.116Z,51.37
2019-05-28T17:44:55.989Z,51.82
2019-05-28T17:47:21.903Z,51.29
2019-05-28T17:49:47.768Z,51.25
2019-05-28T17:52:13.630Z,51.53
2019-05-28T17:54:39.513Z,50.97
2019-05-28T17:57:05.375Z,51.72
2019-05-28T17:59:31.222Z,51.77
2019-05-28T18:01:57.086Z,51.39
2019-05-28T18:04:23.066Z,52.14
2019-05-28T18:06:48.921Z,52.03
2019-05-28T18:09:14.790Z,50.06
2019-05-28T18:11:40.663Z,50.51
2019-05-28T18:14:06.525Z,51.66
2019-05-28T18:16:32.400Z,50.93
2019-05-28T18:19:00.645Z,50.21
2019-05-28T18:21:26.020Z,51.33
2019-05-28T18:23:51.868Z,51.55
2019-05-28T18:26:17.729Z,52.16
2019-05-28T18:28:43.589Z,51.17
2019-05-28T18:31:09.452Z,51.63
2019-05-28T18:33:35.302Z,51.74
2019-05-28T18:36:01.158Z,51.77
2019-05-28T18:38:27.487Z,51.69
2019-05-28T18:40:53.370Z,52.71
2019-05-28T18:43:19.229Z,52.28
2019-05-28T18:45:45.766Z,53.13
2019-05-28T18:48:11.508Z,53.03
2019-05-28T18:50:37.333Z,53.21
2019-05-28T18:53:03.188Z,53.85
2019-05-28T18:55:29.052Z,53.93
2019-05-28T18:57:54.977Z,54.79
2019-05-28T19:00:20.968Z,54.22
2019-05-28T19:02:46.848Z,53.92
2019-05-28T19:05:12.910Z,54.30
2019-05-28T19:07:38.769Z,54.51
2019-05-28T19:10:05.494Z,54.69
2019-05-28T19:12:31.365Z,54.88
2019-05-28T19:14:57.255Z,55.00
2019-05-28T19:17:23.127Z,55.00
2019-05-28T19:19:49.020Z,55.05
2019-05-28T19:22:14.878Z,55.32
2019-05-28T19:24:40.730Z,55.31
2019-05-28T19:27:06.595Z,55.00
2019-05-28T19:29:32.655Z,55.15
2019-05-28T19:31:58.518Z,55.81
2019-05-28T19:34:25.196Z,54.97
2019-05-28T19:36:51.883Z,55.49
2019-05-28T19:39:17.866Z,56.10
2019-05-28T19:41:53.557Z,56.54
2019-05-28T19:44:11.544Z,56.09
2019-05-28T19:46:37.546Z,56.02
2019-05-28T19:49:03.413Z,55.88
2019-05-28T19:51:29.286Z,56.83
2019-05-28T19:53:55.203Z,56.64
2019-05-28T19:56:21.062Z,57.48
2019-05-28T19:58:46.922Z,57.37
2019-05-28T20:01:12.793Z,57.47
2019-05-28T20:03:38.676Z,57.72
2019-05-28T20:06:04.531Z,57.17
2019-05-28T20:08:30.422Z,57.50
2019-05-28T20:10:56.302Z,58.54
2019-05-28T20:13:22.175Z,58.98
2019-05-28T20:15:48.026Z,58.35
2019-05-28T20:18:26.277Z,59.67
2019-05-28T20:20:41.695Z,58.63
2019-05-28T20:23:07.574Z,60.16
2019-05-28T20:25:33.449Z,59.52
2019-05-28T20:27:59.312Z,59.65
2019-05-28T20:30:25.327Z,59.53
2019-05-28T20:32:51.218Z,59.58
2019-05-28T20:35:17.082Z,60.22
2019-05-28T20:37:42.937Z,59.82
2019-05-28T20:40:10.229Z,60.33
2019-05-28T20:42:36.998Z,60.06
2019-05-28T20:45:11.883Z,59.89
2019-05-28T20:47:37.510Z,61.02
2019-05-28T20:50:06.054Z,61.53
2019-05-28T20:52:33.156Z,61.11
2019-05-28T20:54:59.215Z,60.77
2019-05-28T20:57:25.197Z,61.04
2019-05-28T20:59:51.493Z,60.63
2019-05-28T21:02:19.220Z,60.80
2019-05-28T21:04:45.200Z,61.84
2019-05-28T21:07:11.061Z,61.18
2019-05-28T21:09:36.957Z,62.45
2019-05-28T21:12:03.516Z,62.54
2019-05-28T21:14:29.379Z,63.18
2019-05-28T21:16:55.237Z,62.29
2019-05-28T21:19:21.103Z,62.42
2019-05-28T21:21:47.852Z,62.98
2019-05-28T21:24:13.735Z,62.70
2019-05-28T21:26:39.585Z,62.47
2019-05-28T21:29:05.551Z,62.40
2019-05-28T21:31:31.517Z,64.40
2019-05-28T21:33:57.374Z,63.84
2019-05-28T21:36:23.245Z,64.04
2019-05-28T21:38:49.208Z,63.76
2019-05-28T21:41:15.067Z,62.40
2019-05-28T21:43:40.936Z,63.40
2019-05-28T21:46:06.792Z,62.94
2019-05-28T21:48:32.644Z,63.67
2019-05-28T21:50:58.783Z,63.10
2019-05-28T21:53:24.691Z,62.96
2019-05-28T21:55:50.562Z,63.39
2019-05-28T21:58:16.409Z,63.60
2019-05-28T22:00:58.158Z,63.88
2019-05-28T22:03:24.024Z,63.76
2019-05-28T22:05:49.860Z,64.77
2019-05-28T22:08:15.732Z,64.91
2019-05-28T22:10:41.592Z,64.14
2019-05-28T22:13:20.447Z,64.05
2019-05-28T22:15:35.227Z,64.34
2019-05-28T22:18:02.161Z,63.96
2019-05-28T22:20:28.138Z,64.15
2019-05-28T22:22:54.138Z,63.65
2019-05-28T22:25:19.987Z,63.80
2019-05-28T22:27:45.852Z,64.78
2019-05-28T22:30:12.620Z,64.95
2019-05-28T22:32:38.472Z,65.31
2019-05-28T22:35:05.324Z,66.41
2019-05-28T22:37:31.188Z,66.58
2019-05-28T22:39:57.319Z,66.50
2019-05-28T22:42:23.210Z,66.54
2019-05-28T22:44:49.066Z,67.03
2019-05-28T22:47:14.921Z,67.48
2019-05-28T22:49:40.772Z,67.40
2019-05-28T22:52:06.661Z,66.71
2019-05-28T22:54:32.524Z,67.03
2019-05-28T22:56:58.374Z,67.45
2019-05-28T22:59:24.247Z,68.14
2019-05-28T23:01:50.087Z,68.32
2019-05-28T23:04:15.938Z,67.87
2019-05-28T23:06:41.795Z,67.73
2019-05-28T23:09:07.845Z,67.03
2019-05-28T23:11:33.718Z,67.22
2019-05-28T23:13:59.880Z,68.19
2019-05-28T23:16:25.739Z,68.13
2019-05-28T23:18:51.597Z,68.01
2019-05-28T23:21:17.464Z,67.46
2019-05-28T23:23:43.346Z,68.28
2019-05-28T23:26:09.412Z,67.27
2019-05-28T23:28:35.365Z,68.09
2019-05-28T23:31:01.812Z,68.85
2019-05-28T23:33:27.775Z,69.65
2019-05-28T23:35:53.631Z,69.71
2019-05-28T23:38:19.507Z,70.31
2019-05-28T23:40:45.353Z,69.54
2019-05-28T23:43:11.601Z,69.30
2019-05-28T23:45:37.585Z,69.81
2019-05-28T23:48:07.396Z,68.51
2019-05-28T23:50:31.594Z,69.25
2019-05-28T23:52:57.512Z,69.44
2019-05-28T23:55:23.314Z,69.67
2019-05-28T23:57:49.174Z,69.34
